createdAt,value
2019-04-11T00:02:28.905Z,9.07
2019-04-11T00:04:57.321Z,9.17
2019-04-11T00:07:24.999Z,8.60
2019-04-11T00:09:52.759Z,8.40
2019-04-11T00:12:20.385Z,8.70
2019-04-11T00:14:48.463Z,8.27
2019-04-11T00:17:17.503Z,8.87
2019-04-11T00:19:45.415Z,8.13
2019-04-11T00:22:13.517Z,8.77
2019-04-11T00:24:41.181Z,8.70
2019-04-11T00:27:09.159Z,9.30
2019-04-11T00:29:37.161Z,10.13
2019-04-11T00:32:08.052Z,9.10
2019-04-11T00:34:35.234Z,9.80
2019-04-11T00:37:03.133Z,9.00
2019-04-11T00:39:31.867Z,9.27
2019-04-11T00:42:00.040Z,8.57
2019-04-11T00:44:27.748Z,9.27
2019-04-11T00:46:56.340Z,7.87
2019-04-11T00:49:24.219Z,8.83
2019-04-11T00:51:52.267Z,9.10
2019-04-11T00:54:19.902Z,8.90
2019-04-11T00:56:48.463Z,8.80
2019-04-11T00:59:16.600Z,9.13
2019-04-11T01:01:45.003Z,8.60
2019-04-11T01:04:13.720Z,8.80
2019-04-11T01:06:42.562Z,8.80
2019-04-11T01:09:11.102Z,9.20
2019-04-11T01:11:39.013Z,8.50
2019-04-11T01:14:07.888Z,9.30
2019-04-11T01:16:43.749Z,9.13
2019-04-11T01:19:12.000Z,9.10
2019-04-11T01:21:40.593Z,9.17
2019-04-11T01:24:09.302Z,8.97
2019-04-11T01:26:37.231Z,9.30
2019-04-11T01:29:05.077Z,9.10
2019-04-11T01:31:33.955Z,8.70
2019-04-11T01:34:02.358Z,9.20
2019-04-11T01:36:31.128Z,9.60
2019-04-11T01:39:01.113Z,9.70
2019-04-11T01:41:29.261Z,9.83
2019-04-11T01:44:02.097Z,8.80
2019-04-11T01:46:26.725Z,9.20
2019-04-11T01:49:10.233Z,8.80
2019-04-11T01:51:38.696Z,9.30
2019-04-11T01:54:06.354Z,9.23
2019-04-11T01:56:34.063Z,10.00
2019-04-11T01:59:02.766Z,8.80
2019-04-11T02:01:39.055Z,9.47
2019-04-11T02:04:32.325Z,9.33
2019-04-11T02:07:00.412Z,9.47
2019-04-11T02:09:28.423Z,9.03
2019-04-11T02:11:56.380Z,8.70
2019-04-11T02:14:25.745Z,9.90
2019-04-11T02:16:54.260Z,9.20
2019-04-11T02:19:22.007Z,9.77
2019-04-11T02:21:51.754Z,9.30
2019-04-11T02:24:39.616Z,9.33
2019-04-11T02:27:21.190Z,9.97
2019-04-11T02:29:49.512Z,9.13
2019-04-11T02:32:18.429Z,10.00
2019-04-11T02:34:48.081Z,8.80
2019-04-11T02:37:17.218Z,9.27
2019-04-11T02:39:47.895Z,9.87
2019-04-11T02:42:18.879Z,10.00
2019-04-11T02:45:03.462Z,9.23
2019-04-11T02:47:22.850Z,9.23
2019-04-11T02:49:47.715Z,8.93
2019-04-11T02:52:17.563Z,9.37
2019-04-11T02:54:47.248Z,9.10
2019-04-11T02:57:16.342Z,9.47
2019-04-11T02:59:47.248Z,10.37
2019-04-11T03:02:17.559Z,10.57
2019-04-11T03:04:45.842Z,9.40
2019-04-11T03:07:14.450Z,9.33
2019-04-11T03:09:46.219Z,9.30
2019-04-11T03:12:15.502Z,8.90
2019-04-11T03:15:01.118Z,9.50
2019-04-11T03:17:20.750Z,9.57
2019-04-11T03:19:58.336Z,9.43
2019-04-11T03:22:14.111Z,9.80
2019-04-11T03:24:42.980Z,9.83
2019-04-11T03:27:12.152Z,10.30
2019-04-11T03:29:40.901Z,9.53
2019-04-11T03:32:51.923Z,9.03
2019-04-11T03:37:41.835Z,9.77
2019-04-11T03:40:00.660Z,9.20
2019-04-11T03:42:25.038Z,10.03
2019-04-11T03:44:44.925Z,10.13
2019-04-11T03:47:20.292Z,9.73
2019-04-11T03:49:46.781Z,10.50
2019-04-11T03:52:10.104Z,9.70
2019-04-11T03:54:38.938Z,9.70
2019-04-11T03:57:07.873Z,10.60
2019-04-11T03:59:38.396Z,9.63
2019-04-11T04:02:07.684Z,9.83
2019-04-11T04:04:36.988Z,10.30
2019-04-11T04:07:06.788Z,9.67
2019-04-11T04:09:35.367Z,9.80
2019-04-11T04:12:05.005Z,9.23
2019-04-11T04:15:23.691Z,9.43
2019-04-11T04:17:52.827Z,9.60
2019-04-11T04:20:49.051Z,10.30
2019-04-11T04:23:21.594Z,10.33
2019-04-11T04:25:49.439Z,9.70
2019-04-11T04:28:19.114Z,10.27
2019-04-11T04:30:47.353Z,9.77
2019-04-11T04:33:17.086Z,9.70
2019-04-11T04:35:45.246Z,9.57
2019-04-11T04:38:13.638Z,9.90
2019-04-11T04:40:58.601Z,10.20
2019-04-11T04:43:14.442Z,9.30
2019-04-11T04:46:01.055Z,10.47
2019-04-11T04:48:16.625Z,10.47
2019-04-11T04:50:44.612Z,10.37
2019-04-11T04:53:13.697Z,10.03
2019-04-11T04:55:43.616Z,10.20
2019-04-11T04:58:13.165Z,10.80
2019-04-11T05:00:41.441Z,9.77
2019-04-11T05:03:09.881Z,9.50
2019-04-11T05:05:38.913Z,10.30
2019-04-11T05:08:08.415Z,10.17
2019-04-11T05:10:37.999Z,9.50
2019-04-11T05:13:07.641Z,10.27
2019-04-11T05:15:36.638Z,9.50
2019-04-11T05:18:06.104Z,9.80
2019-04-11T05:20:34.856Z,9.80
2019-04-11T05:23:02.493Z,10.10
2019-04-11T05:25:31.216Z,10.13
2019-04-11T05:28:00.134Z,9.60
2019-04-11T05:30:29.422Z,10.17
2019-04-11T05:32:57.895Z,9.03
2019-04-11T05:35:26.934Z,10.07
2019-04-11T05:37:55.727Z,9.70
2019-04-11T05:40:24.000Z,9.73
2019-04-11T05:42:54.144Z,9.87
2019-04-11T05:45:24.401Z,9.70
2019-04-11T05:47:54.712Z,9.67
2019-04-11T05:50:50.456Z,9.63
2019-04-11T05:53:19.867Z,9.43
2019-04-11T05:55:48.513Z,9.83
2019-04-11T05:58:17.583Z,9.67
2019-04-11T06:00:53.313Z,9.00
2019-04-11T06:03:21.821Z,9.83
2019-04-11T06:06:06.528Z,9.50
2019-04-11T06:08:35.675Z,9.40
2019-04-11T06:11:17.271Z,8.93
2019-04-11T06:14:20.404Z,8.93
2019-04-11T06:16:53.819Z,10.17
2019-04-11T06:19:53.736Z,9.43
2019-04-11T06:22:21.465Z,8.90
2019-04-11T06:25:06.243Z,9.17
2019-04-11T06:27:57.918Z,9.03
2019-04-11T06:30:54.711Z,9.30
2019-04-11T06:33:30.043Z,8.67
2019-04-11T06:36:23.301Z,9.10
2019-04-11T06:39:01.433Z,8.63
2019-04-11T06:41:57.608Z,8.30
2019-04-11T06:44:48.116Z,8.57
2019-04-11T06:47:29.474Z,8.20
2019-04-11T06:50:09.485Z,8.50
2019-04-11T06:52:39.058Z,7.40
2019-04-11T06:55:26.908Z,8.23
2019-04-11T06:57:58.499Z,7.30
2019-04-11T07:00:27.323Z,7.70
2019-04-11T07:02:59.263Z,7.80
2019-04-11T07:05:31.005Z,7.83
2019-04-11T07:07:59.909Z,7.87
2019-04-11T07:10:34.267Z,8.00
2019-04-11T07:13:14.281Z,8.17
2019-04-11T07:15:44.756Z,8.47
2019-04-11T07:18:31.243Z,8.10
2019-04-11T07:21:04.461Z,7.80
2019-04-11T07:23:51.393Z,7.40
2019-04-11T07:26:47.958Z,8.53
2019-04-11T07:29:33.774Z,8.20
2019-04-11T07:32:07.640Z,7.90
2019-04-11T07:35:08.518Z,7.80
2019-04-11T07:37:38.725Z,7.20
2019-04-11T07:40:27.264Z,7.40
2019-04-11T07:43:24.938Z,7.53
2019-04-11T07:46:15.043Z,7.50
2019-04-11T07:48:43.072Z,8.47
2019-04-11T07:51:30.102Z,8.20
2019-04-11T07:54:00.296Z,7.60
2019-04-11T07:56:50.708Z,6.97
2019-04-11T07:59:37.631Z,7.10
2019-04-11T08:02:40.416Z,7.33
2019-04-11T08:05:36.918Z,6.83
2019-04-11T08:08:19.466Z,7.43
2019-04-11T08:10:52.591Z,7.00
2019-04-11T08:13:26.254Z,7.23
2019-04-11T08:16:12.581Z,7.27
2019-04-11T08:18:59.755Z,8.07
2019-04-11T08:21:54.599Z,7.47
2019-04-11T08:24:30.037Z,7.70
2019-04-11T08:27:17.640Z,7.50
2019-04-11T08:29:48.860Z,7.70
2019-04-11T08:32:33.834Z,7.40
2019-04-11T08:35:19.866Z,7.40
2019-04-11T08:37:58.441Z,7.90
2019-04-11T08:40:28.137Z,7.67
2019-04-11T08:43:07.912Z,7.67
2019-04-11T08:45:38.192Z,7.07
2019-04-11T08:48:07.065Z,8.23
2019-04-11T08:50:38.670Z,7.13
2019-04-11T08:53:26.769Z,7.50
2019-04-11T08:56:00.505Z,6.97
2019-04-11T08:58:36.342Z,7.50
2019-04-11T09:01:07.474Z,8.57
2019-04-11T09:04:02.157Z,8.20
2019-04-11T09:06:34.935Z,7.27
2019-04-11T09:09:31.484Z,7.60
2019-04-11T09:12:02.507Z,7.50
2019-04-11T09:14:56.556Z,8.07
2019-04-11T09:17:28.245Z,7.23
2019-04-11T09:20:23.374Z,7.57
2019-04-11T09:23:11.247Z,7.80
2019-04-11T09:26:17.986Z,8.13
2019-04-11T09:28:49.421Z,7.43
2019-04-11T09:31:43.989Z,7.33
2019-04-11T09:34:30.966Z,7.80
2019-04-11T09:37:20.516Z,7.53
2019-04-11T09:40:23.938Z,8.03
2019-04-11T09:43:09.774Z,7.63
2019-04-11T09:45:47.983Z,8.27
2019-04-11T09:48:42.204Z,7.23
2019-04-11T09:51:29.485Z,8.10
2019-04-11T09:54:03.580Z,7.23
2019-04-11T09:56:49.303Z,8.23
2019-04-11T09:59:23.016Z,8.27
2019-04-11T10:02:09.882Z,6.90
2019-04-11T10:04:39.262Z,7.10
2019-04-11T10:07:25.845Z,7.90
2019-04-11T10:10:06.575Z,7.00
2019-04-11T10:12:52.117Z,6.90
2019-04-11T10:15:24.403Z,7.60
2019-04-11T10:18:20.115Z,7.70
2019-04-11T10:20:40.515Z,7.60
2019-04-11T10:23:23.003Z,7.30
2019-04-11T10:25:55.928Z,7.33
2019-04-11T10:28:42.140Z,7.30
2019-04-11T10:31:12.584Z,6.97
2019-04-11T10:34:06.118Z,7.07
2019-04-11T10:36:37.652Z,7.40
2019-04-11T10:39:22.517Z,7.77
2019-04-11T10:41:53.876Z,7.40
2019-04-11T10:44:31.955Z,6.83
2019-04-11T10:47:09.617Z,6.97
2019-04-11T10:49:56.717Z,7.27
2019-04-11T10:52:38.411Z,6.53
2019-04-11T10:55:11.956Z,7.03
2019-04-11T10:57:44.571Z,7.30
2019-04-11T11:00:41.077Z,7.43
2019-04-11T11:03:30.944Z,7.20
2019-04-11T11:05:59.996Z,6.70
2019-04-11T11:08:33.777Z,6.97
2019-04-11T11:11:06.364Z,7.07
2019-04-11T11:13:51.796Z,7.40
2019-04-11T11:16:22.347Z,7.43
2019-04-11T11:19:33.736Z,8.07
2019-04-11T11:21:38.923Z,7.87
2019-04-11T11:24:38.243Z,7.93
2019-04-11T11:27:05.717Z,8.13
2019-04-11T11:29:53.934Z,7.30
2019-04-11T11:32:27.953Z,7.40
2019-04-11T11:35:15.144Z,7.20
2019-04-11T11:37:45.700Z,8.00
2019-04-11T11:40:32.081Z,7.90
2019-04-11T11:43:21.211Z,7.23
2019-04-11T11:46:08.456Z,7.47
2019-04-11T11:48:54.567Z,7.10
2019-04-11T11:51:47.893Z,7.83
2019-04-11T11:54:22.419Z,8.03
2019-04-11T11:56:51.002Z,8.60
2019-04-11T11:59:34.450Z,8.13
2019-04-11T12:02:15.677Z,7.60
2019-04-11T12:05:16.420Z,7.70
2019-04-11T12:07:49.305Z,8.63
2019-04-11T12:10:26.010Z,7.57
2019-04-11T12:13:14.397Z,8.40
2019-04-11T12:15:59.504Z,7.57
2019-04-11T12:18:51.675Z,7.60
2019-04-11T12:21:26.164Z,7.77
2019-04-11T12:24:29.767Z,8.07
2019-04-11T12:27:16.445Z,7.70
2019-04-11T12:30:08.718Z,8.00
2019-04-11T12:32:40.882Z,7.20
2019-04-11T12:35:30.675Z,7.43
2019-04-11T12:38:03.984Z,7.93
2019-04-11T12:40:56.552Z,7.07
2019-04-11T12:43:28.596Z,7.50
2019-04-11T12:46:14.276Z,7.20
2019-04-11T12:48:46.145Z,7.13
2019-04-11T12:51:34.391Z,7.70
2019-04-11T12:54:02.613Z,8.50
2019-04-11T12:56:47.540Z,7.70
2019-04-11T12:59:19.009Z,7.40
2019-04-11T13:02:04.656Z,7.10
2019-04-11T13:04:34.824Z,7.87
2019-04-11T13:07:11.331Z,7.70
2019-04-11T13:09:46.032Z,7.70
2019-04-11T13:12:20.019Z,7.33
2019-04-11T13:15:22.119Z,7.27
2019-04-11T13:18:08.939Z,7.43
2019-04-11T13:20:58.241Z,8.00
2019-04-11T13:23:40.450Z,7.00
2019-04-11T13:26:25.764Z,6.90
2019-04-11T13:29:23.788Z,7.37
2019-04-11T13:32:09.500Z,7.43
2019-04-11T13:34:37.644Z,7.23
2019-04-11T13:37:23.854Z,6.93
2019-04-11T13:39:58.870Z,7.37
2019-04-11T13:42:48.559Z,6.60
2019-04-11T13:45:17.040Z,7.20
2019-04-11T13:48:03.235Z,6.37
2019-04-11T13:50:32.647Z,6.60
2019-04-11T13:53:22.679Z,6.40
2019-04-11T13:55:50.408Z,6.50
2019-04-11T13:58:40.271Z,6.70
2019-04-11T14:01:11.653Z,8.03
2019-04-11T14:03:59.009Z,8.00
2019-04-11T14:06:34.382Z,8.70
2019-04-11T14:09:24.792Z,8.13
2019-04-11T14:11:56.966Z,7.37
2019-04-11T14:14:45.805Z,7.90
2019-04-11T14:17:32.005Z,7.97
2019-04-11T14:20:34.195Z,7.63
2019-04-11T14:23:19.487Z,7.80
2019-04-11T14:26:05.859Z,7.73
2019-04-11T14:28:45.651Z,7.93
2019-04-11T14:31:31.586Z,7.40
2019-04-11T14:34:15.177Z,8.30
2019-04-11T14:36:58.537Z,7.07
2019-04-11T14:39:28.386Z,8.53
2019-04-11T14:42:31.240Z,8.20
2019-04-11T14:44:59.736Z,7.83
2019-04-11T14:47:47.893Z,7.93
2019-04-11T14:50:17.251Z,7.70
2019-04-11T14:52:52.843Z,7.60
2019-04-11T14:55:21.945Z,7.47
2019-04-11T14:58:12.324Z,7.77
2019-04-11T15:00:41.314Z,7.77
2019-04-11T15:03:33.911Z,7.80
2019-04-11T15:06:35.774Z,8.37
2019-04-11T15:09:30.072Z,8.40
2019-04-11T15:12:25.993Z,7.63
2019-04-11T15:15:20.016Z,8.20
2019-04-11T15:17:49.005Z,8.10
2019-04-11T15:20:53.845Z,7.70
2019-04-11T15:23:33.353Z,8.07
2019-04-11T15:26:22.923Z,8.07
2019-04-11T15:29:07.222Z,8.53
2019-04-11T15:31:59.547Z,8.47
2019-04-11T15:34:46.915Z,8.00
2019-04-11T15:37:36.798Z,8.03
2019-04-11T15:40:29.420Z,8.17
2019-04-11T15:43:19.275Z,8.50
2019-04-11T15:46:17.019Z,8.20
2019-04-11T15:49:04.209Z,8.53
2019-04-11T15:51:39.616Z,8.23
2019-04-11T15:54:26.513Z,8.43
2019-04-11T15:57:12.653Z,7.50
2019-04-11T15:59:58.674Z,9.00
2019-04-11T16:02:45.463Z,9.03
2019-04-11T16:05:50.457Z,8.60
2019-04-11T16:08:52.698Z,8.43
2019-04-11T16:11:51.853Z,8.63
2019-04-11T16:14:25.745Z,8.93
2019-04-11T16:17:13.707Z,9.03
2019-04-11T16:19:52.437Z,9.30
2019-04-11T16:22:54.950Z,9.00
2019-04-11T16:25:22.280Z,8.90
2019-04-11T16:28:12.624Z,8.83
2019-04-11T16:30:46.107Z,8.67
2019-04-11T16:33:32.175Z,9.20
2019-04-11T16:36:02.399Z,8.20
2019-04-11T16:38:33.199Z,8.67
2019-04-11T16:41:18.666Z,8.40
2019-04-11T16:43:49.876Z,9.30
2019-04-11T16:46:35.313Z,8.90
2019-04-11T16:49:03.188Z,8.57
2019-04-11T16:51:31.569Z,8.70
2019-04-11T16:54:00.430Z,8.63
2019-04-11T16:56:28.413Z,8.30
2019-04-11T16:58:56.733Z,8.33
2019-04-11T17:01:25.048Z,8.60
2019-04-11T17:03:55.114Z,9.20
2019-04-11T17:06:37.688Z,8.67
2019-04-11T17:09:10.196Z,9.23
2019-04-11T17:11:38.916Z,8.70
2019-04-11T17:14:07.528Z,8.70
2019-04-11T17:16:35.906Z,8.50
2019-04-11T17:19:05.564Z,8.70
2019-04-11T17:21:42.732Z,8.80
2019-04-11T17:24:03.806Z,8.70
2019-04-11T17:26:31.696Z,8.30
2019-04-11T17:28:59.337Z,8.50
2019-04-11T17:31:27.084Z,8.70
2019-04-11T17:33:56.612Z,8.13
2019-04-11T17:36:24.768Z,9.67
2019-04-11T17:38:52.884Z,8.60
2019-04-11T17:41:21.117Z,8.93
2019-04-11T17:43:51.681Z,8.50
2019-04-11T17:46:19.377Z,8.40
2019-04-11T17:48:50.257Z,8.63
2019-04-11T17:51:17.368Z,8.20
2019-04-11T17:53:45.037Z,8.13
2019-04-11T17:56:12.956Z,8.27
2019-04-11T17:58:41.515Z,8.37
2019-04-11T18:01:09.644Z,8.77
2019-04-11T18:03:37.560Z,8.70
2019-04-11T18:06:06.145Z,8.30
2019-04-11T18:08:37.819Z,9.07
2019-04-11T18:11:05.837Z,8.63
2019-04-11T18:13:33.589Z,8.23
2019-04-11T18:16:02.137Z,8.40
2019-04-11T18:18:30.024Z,8.70
2019-04-11T18:20:57.988Z,7.77
2019-04-11T18:23:25.888Z,8.00
2019-04-11T18:25:53.551Z,8.90
2019-04-11T18:28:22.370Z,8.60
2019-04-11T18:30:53.754Z,8.63
2019-04-11T18:33:20.853Z,8.80
2019-04-11T18:35:48.504Z,8.30
2019-04-11T18:38:16.468Z,8.53
2019-04-11T18:40:44.400Z,9.07
2019-04-11T18:43:16.051Z,8.07
2019-04-11T18:45:42.892Z,7.93
2019-04-11T18:48:10.892Z,8.50
2019-04-11T18:50:39.326Z,8.47
2019-04-11T18:53:07.598Z,8.40
2019-04-11T18:55:35.241Z,8.60
2019-04-11T18:58:04.642Z,7.63
2019-04-11T19:00:32.934Z,8.40
2019-04-11T19:03:01.225Z,8.60
2019-04-11T19:05:29.797Z,7.90
2019-04-11T19:07:58.253Z,8.40
2019-04-11T19:10:26.198Z,7.90
2019-04-11T19:12:54.924Z,7.90
2019-04-11T19:15:23.104Z,8.40
2019-04-11T19:17:55.506Z,8.67
2019-04-11T19:20:20.696Z,8.10
2019-04-11T19:22:49.067Z,8.17
2019-04-11T19:25:16.773Z,8.80
2019-04-11T19:27:44.444Z,8.10
2019-04-11T19:30:13.268Z,8.00
2019-04-11T19:32:41.555Z,8.23
2019-04-11T19:35:09.207Z,8.37
2019-04-11T19:37:37.237Z,8.10
2019-04-11T19:40:05.270Z,7.37
2019-04-11T19:42:34.417Z,8.43
2019-04-11T19:45:03.030Z,8.30
2019-04-11T19:47:30.827Z,8.43
2019-04-11T19:49:59.236Z,7.83
2019-04-11T19:52:26.955Z,8.07
2019-04-11T19:54:56.865Z,7.80
2019-04-11T19:57:24.489Z,8.53
2019-04-11T19:59:52.755Z,7.80
2019-04-11T20:02:23.380Z,8.33
2019-04-11T20:04:50.878Z,7.63
2019-04-11T20:07:18.513Z,7.90
2019-04-11T20:09:46.443Z,8.67
2019-04-11T20:12:14.094Z,7.80
2019-04-11T20:14:41.739Z,7.80
2019-04-11T20:17:09.652Z,7.70
2019-04-11T20:19:37.906Z,7.70
2019-04-11T20:22:08.220Z,8.20
2019-04-11T20:24:36.247Z,7.93
2019-04-11T20:27:04.176Z,7.93
2019-04-11T20:29:31.824Z,8.27
2019-04-11T20:31:59.823Z,8.00
2019-04-11T20:34:28.235Z,8.93
2019-04-11T20:36:56.396Z,7.77
2019-04-11T20:39:24.206Z,8.17
2019-04-11T20:41:53.520Z,8.10
2019-04-11T20:44:21.874Z,8.27
2019-04-11T20:46:49.750Z,7.37
2019-04-11T20:49:17.941Z,8.20
2019-04-11T20:51:46.097Z,7.97
2019-04-11T20:54:14.318Z,8.33
2019-04-11T20:56:42.372Z,8.03
2019-04-11T20:59:10.997Z,7.67
2019-04-11T21:01:38.838Z,8.40
2019-04-11T21:04:07.478Z,7.90
2019-04-11T21:06:35.679Z,8.07
2019-04-11T21:09:05.258Z,8.03
2019-04-11T21:11:36.198Z,8.03
2019-04-11T21:14:02.518Z,8.30
2019-04-11T21:16:30.780Z,8.23
2019-04-11T21:18:58.431Z,8.10
2019-04-11T21:21:26.110Z,8.30
2019-04-11T21:23:54.352Z,8.13
2019-04-11T21:26:22.003Z,8.97
2019-04-11T21:28:50.326Z,8.30
2019-04-11T21:31:17.974Z,8.10
2019-04-11T21:33:46.017Z,8.47
2019-04-11T21:36:13.673Z,8.53
2019-04-11T21:38:41.344Z,7.80
2019-04-11T21:41:09.382Z,8.80
2019-04-11T21:43:37.872Z,8.67
2019-04-11T21:46:06.855Z,8.37
2019-04-11T21:48:36.064Z,8.03
2019-04-11T21:51:04.888Z,8.40
2019-04-11T21:53:36.771Z,8.10
2019-04-11T21:56:02.785Z,8.60
2019-04-11T21:58:31.296Z,7.50
2019-04-11T22:01:01.728Z,8.10
2019-04-11T22:03:29.788Z,9.03
2019-04-11T22:05:59.977Z,8.33
2019-04-11T22:08:27.885Z,8.50
2019-04-11T22:10:55.792Z,8.40
2019-04-11T22:13:24.024Z,8.50
2019-04-11T22:15:51.672Z,8.00
2019-04-11T22:18:19.848Z,8.60
2019-04-11T22:20:47.937Z,8.60
2019-04-11T22:23:16.037Z,8.90
2019-04-11T22:25:44.017Z,8.50
2019-04-11T22:28:11.641Z,8.20
2019-04-11T22:30:39.276Z,8.00
2019-04-11T22:33:27.612Z,7.83
2019-04-11T22:35:57.018Z,7.70
2019-04-11T22:38:25.425Z,7.97
2019-04-11T22:40:53.327Z,7.70
2019-04-11T22:43:24.340Z,8.20
2019-04-11T22:45:51.437Z,8.00
2019-04-11T22:48:19.451Z,7.90
2019-04-11T22:50:47.084Z,8.00
2019-04-11T22:53:15.305Z,7.70
2019-04-11T22:55:43.007Z,8.27
2019-04-11T22:58:13.930Z,8.00
2019-04-11T23:00:44.878Z,8.77
2019-04-11T23:03:17.129Z,9.40
2019-04-11T23:05:46.805Z,9.87
2019-04-11T23:08:14.418Z,10.20
2019-04-11T23:10:42.365Z,9.27
2019-04-11T23:13:10.309Z,8.87
2019-04-11T23:15:37.956Z,8.40
2019-04-11T23:18:05.982Z,8.53
2019-04-11T23:20:34.127Z,8.83
2019-04-11T23:23:02.080Z,9.20
2019-04-11T23:25:30.268Z,8.73
2019-04-11T23:27:58.580Z,8.80
2019-04-11T23:30:26.717Z,9.90
2019-04-11T23:32:54.733Z,8.80
2019-04-11T23:35:23.406Z,8.40
2019-04-11T23:37:52.051Z,8.37
2019-04-11T23:40:21.637Z,8.57
2019-04-11T23:42:50.754Z,8.13
2019-04-11T23:45:21.474Z,8.27
2019-04-11T23:47:53.162Z,8.10
2019-04-11T23:50:19.448Z,9.00
2019-04-11T23:52:47.349Z,9.03
2019-04-11T23:55:15.624Z,8.33
2019-04-11T23:57:43.588Z,8.90
